sensor_id;sensor_type;location;lat;lon;timestamp;P1;durP1;ratioP1;P2;durP2;ratioP2
2610;SDS011;5612;51.134;17.058;2023-03-01T00:00:10;84.23;;;57.43;;
2610;SDS011;5612;51.134;17.058;2023-03-01T00:02:41;76.27;;;51.87;;
2610;SDS011;5612;51.134;17.058;2023-03-01T00:05:10;81.83;;;56.87;;
2610;SDS011;5612;51.134;17.058;2023-03-01T00:07:39;81.60;;;54.63;;
2610;SDS011;5612;51.134;17.058;2023-03-01T00:10:09;82.63;;;51.77;;
2610;SDS011;5612;51.134;17.058;2023-03-01T00:12:40;81.67;;;55.23;;
2610;SDS011;5612;51.134;17.058;2023-03-01T00:15:09;78.70;;;55.47;;
2610;SDS011;5612;51.134;17.058;2023-03-01T00:17:39;70.63;;;48.30;;
2610;SDS011;5612;51.134;17.058;2023-03-01T00:20:08;78.03;;;55.33;;
2610;SDS011;5612;51.134;17.058;2023-03-01T00:22:38;72.77;;;50.23;;
2610;SDS011;5612;51.134;17.058;2023-03-01T00:25:07;76.83;;;51.00;;
2610;SDS011;5612;51.134;17.058;2023-03-01T00:27:36;84.67;;;58.20;;
2610;SDS011;5612;51.134;17.058;2023-03-01T00:30:07;80.70;;;55.90;;
2610;SDS011;5612;51.134;17.058;2023-03-01T00:32:37;75.23;;;52.43;;
2610;SDS011;5612;51.134;17.058;2023-03-01T00:35:06;69.80;;;44.90;;
2610;SDS011;5612;51.134;17.058;2023-03-01T00:37:36;76.67;;;53.50;;
2610;SDS011;5612;51.134;17.058;2023-03-01T00:40:05;70.63;;;54.60;;
2610;SDS011;5612;51.134;17.058;2023-03-01T00:42:36;80.37;;;54.10;;
2610;SDS011;5612;51.134;17.058;2023-03-01T00:45:08;71.87;;;52.50;;
2610;SDS011;5612;51.134;17.058;2023-03-01T00:47:37;76.50;;;52.60;;
2610;SDS011;5612;51.134;17.058;2023-03-01T00:50:06;71.70;;;50.70;;
2610;SDS011;5612;51.134;17.058;2023-03-01T00:52:37;70.93;;;44.80;;
2610;SDS011;5612;51.134;17.058;2023-03-01T00:55:06;72.60;;;53.67;;
2610;SDS011;5612;51.134;17.058;2023-03-01T00:57:38;81.23;;;55.10;;
2610;SDS011;5612;51.134;17.058;2023-03-01T01:00:09;83.03;;;56.90;;
2610;SDS011;5612;51.134;17.058;2023-03-01T01:02:39;74.90;;;54.20;;
2610;SDS011;5612;51.134;17.058;2023-03-01T01:05:08;80.63;;;57.53;;
2610;SDS011;5612;51.134;17.058;2023-03-01T01:07:37;79.60;;;56.53;;
2610;SDS011;5612;51.134;17.058;2023-03-01T01:10:06;89.27;;;58.47;;
2610;SDS011;5612;51.134;17.058;2023-03-01T01:12:44;86.43;;;61.87;;
2610;SDS011;5612;51.134;17.058;2023-03-01T01:15:15;88.90;;;58.90;;
2610;SDS011;5612;51.134;17.058;2023-03-01T01:17:44;80.47;;;57.67;;
2610;SDS011;5612;51.134;17.058;2023-03-01T01:20:13;83.87;;;57.70;;
2610;SDS011;5612;51.134;17.058;2023-03-01T01:22:59;84.40;;;61.60;;
2610;SDS011;5612;51.134;17.058;2023-03-01T01:25:28;80.10;;;58.37;;
2610;SDS011;5612;51.134;17.058;2023-03-01T01:27:56;94.07;;;65.10;;
2610;SDS011;5612;51.134;17.058;2023-03-01T01:30:26;83.27;;;60.30;;
2610;SDS011;5612;51.134;17.058;2023-03-01T01:32:55;88.23;;;59.30;;
2610;SDS011;5612;51.134;17.058;2023-03-01T01:35:24;89.10;;;64.07;;
2610;SDS011;5612;51.134;17.058;2023-03-01T01:37:53;82.97;;;59.17;;
2610;SDS011;5612;51.134;17.058;2023-03-01T01:40:22;91.90;;;60.30;;
2610;SDS011;5612;51.134;17.058;2023-03-01T01:42:51;83.73;;;61.43;;
2610;SDS011;5612;51.134;17.058;2023-03-01T01:45:28;98.73;;;63.57;;
2610;SDS011;5612;51.134;17.058;2023-03-01T01:48:02;93.97;;;64.13;;
2610;SDS011;5612;51.134;17.058;2023-03-01T01:50:38;99.73;;;72.20;;
2610;SDS011;5612;51.134;17.058;2023-03-01T01:53:09;100.93;;;68.57;;
2610;SDS011;5612;51.134;17.058;2023-03-01T01:55:41;88.90;;;60.47;;
2610;SDS011;5612;51.134;17.058;2023-03-01T01:58:14;96.20;;;61.93;;
2610;SDS011;5612;51.134;17.058;2023-03-01T02:00:47;86.13;;;62.20;;
2610;SDS011;5612;51.134;17.058;2023-03-01T02:03:17;95.27;;;71.30;;
2610;SDS011;5612;51.134;17.058;2023-03-01T02:05:51;91.43;;;64.67;;
2610;SDS011;5612;51.134;17.058;2023-03-01T02:08:26;97.97;;;65.47;;
2610;SDS011;5612;51.134;17.058;2023-03-01T02:10:57;92.83;;;68.07;;
2610;SDS011;5612;51.134;17.058;2023-03-01T02:13:27;95.97;;;64.80;;
2610;SDS011;5612;51.134;17.058;2023-03-01T02:15:59;106.60;;;74.53;;
2610;SDS011;5612;51.134;17.058;2023-03-01T02:18:30;98.97;;;67.70;;
2610;SDS011;5612;51.134;17.058;2023-03-01T02:21:03;101.57;;;69.90;;
2610;SDS011;5612;51.134;17.058;2023-03-01T02:23:39;104.10;;;68.63;;
2610;SDS011;5612;51.134;17.058;2023-03-01T02:26:11;105.67;;;70.90;;
2610;SDS011;5612;51.134;17.058;2023-03-01T02:28:47;105.83;;;69.13;;
2610;SDS011;5612;51.134;17.058;2023-03-01T02:31:19;111.13;;;73.27;;
2610;SDS011;5612;51.134;17.058;2023-03-01T02:34:06;103.50;;;72.67;;
2610;SDS011;5612;51.134;17.058;2023-03-01T02:36:39;112.80;;;74.53;;
2610;SDS011;5612;51.134;17.058;2023-03-01T02:39:12;110.20;;;73.87;;
2610;SDS011;5612;51.134;17.058;2023-03-01T02:41:46;114.93;;;79.73;;
2610;SDS011;5612;51.134;17.058;2023-03-01T02:44:19;117.67;;;75.63;;
2610;SDS011;5612;51.134;17.058;2023-03-01T02:46:50;103.77;;;74.27;;
2610;SDS011;5612;51.134;17.058;2023-03-01T02:49:24;97.37;;;69.97;;
2610;SDS011;5612;51.134;17.058;2023-03-01T02:54:50;106.43;;;70.20;;
2610;SDS011;5612;51.134;17.058;2023-03-01T02:57:25;108.70;;;72.43;;
2610;SDS011;5612;51.134;17.058;2023-03-01T03:00:01;108.83;;;72.10;;
2610;SDS011;5612;51.134;17.058;2023-03-01T03:02:35;115.77;;;75.80;;
2610;SDS011;5612;51.134;17.058;2023-03-01T03:05:05;111.93;;;74.90;;
2610;SDS011;5612;51.134;17.058;2023-03-01T03:07:37;104.60;;;72.97;;
2610;SDS011;5612;51.134;17.058;2023-03-01T03:10:08;101.73;;;72.90;;
2610;SDS011;5612;51.134;17.058;2023-03-01T03:12:40;110.27;;;74.90;;
2610;SDS011;5612;51.134;17.058;2023-03-01T03:15:11;99.60;;;74.30;;
2610;SDS011;5612;51.134;17.058;2023-03-01T03:17:40;106.40;;;73.57;;
2610;SDS011;5612;51.134;17.058;2023-03-01T03:20:12;106.50;;;73.57;;
2610;SDS011;5612;51.134;17.058;2023-03-01T03:22:46;103.20;;;70.70;;
2610;SDS011;5612;51.134;17.058;2023-03-01T03:25:16;109.10;;;75.17;;
2610;SDS011;5612;51.134;17.058;2023-03-01T03:27:46;109.10;;;74.97;;
2610;SDS011;5612;51.134;17.058;2023-03-01T03:30:18;109.17;;;72.43;;
2610;SDS011;5612;51.134;17.058;2023-03-01T03:32:48;103.20;;;71.00;;
2610;SDS011;5612;51.134;17.058;2023-03-01T03:35:20;112.10;;;74.97;;
2610;SDS011;5612;51.134;17.058;2023-03-01T03:37:51;107.40;;;70.53;;
2610;SDS011;5612;51.134;17.058;2023-03-01T03:40:34;100.93;;;71.83;;
2610;SDS011;5612;51.134;17.058;2023-03-01T03:43:04;99.50;;;69.80;;
2610;SDS011;5612;51.134;17.058;2023-03-01T03:45:36;107.60;;;70.17;;
2610;SDS011;5612;51.134;17.058;2023-03-01T03:48:05;97.97;;;67.53;;
2610;SDS011;5612;51.134;17.058;2023-03-01T03:50:38;98.30;;;68.30;;
2610;SDS011;5612;51.134;17.058;2023-03-01T03:53:11;101.57;;;68.10;;
2610;SDS011;5612;51.134;17.058;2023-03-01T03:55:40;94.77;;;65.30;;
2610;SDS011;5612;51.134;17.058;2023-03-01T03:58:11;104.83;;;72.87;;
2610;SDS011;5612;51.134;17.058;2023-03-01T04:00:42;113.97;;;71.07;;
2610;SDS011;5612;51.134;17.058;2023-03-01T04:03:13;104.13;;;68.53;;
2610;SDS011;5612;51.134;17.058;2023-03-01T04:05:43;101.37;;;71.93;;
2610;SDS011;5612;51.134;17.058;2023-03-01T04:08:12;99.47;;;70.53;;
2610;SDS011;5612;51.134;17.058;2023-03-01T04:10:42;99.97;;;69.03;;
2610;SDS011;5612;51.134;17.058;2023-03-01T04:13:13;111.23;;;75.90;;
2610;SDS011;5612;51.134;17.058;2023-03-01T04:15:44;105.03;;;70.77;;
2610;SDS011;5612;51.134;17.058;2023-03-01T04:18:13;106.87;;;70.00;;
2610;SDS011;5612;51.134;17.058;2023-03-01T04:20:43;101.73;;;72.23;;
2610;SDS011;5612;51.134;17.058;2023-03-01T04:23:13;105.90;;;71.57;;
2610;SDS011;5612;51.134;17.058;2023-03-01T04:25:46;101.43;;;72.20;;
2610;SDS011;5612;51.134;17.058;2023-03-01T04:28:20;103.87;;;67.80;;
2610;SDS011;5612;51.134;17.058;2023-03-01T04:30:52;103.63;;;71.00;;
2610;SDS011;5612;51.134;17.058;2023-03-01T04:33:22;103.30;;;73.53;;
2610;SDS011;5612;51.134;17.058;2023-03-01T04:35:51;112.40;;;74.53;;
2610;SDS011;5612;51.134;17.058;2023-03-01T04:38:20;110.67;;;75.37;;
2610;SDS011;5612;51.134;17.058;2023-03-01T04:40:51;114.77;;;74.83;;
2610;SDS011;5612;51.134;17.058;2023-03-01T04:43:20;107.23;;;72.63;;
2610;SDS011;5612;51.134;17.058;2023-03-01T04:45:49;105.13;;;71.97;;
2610;SDS011;5612;51.134;17.058;2023-03-01T04:48:19;113.53;;;78.37;;
2610;SDS011;5612;51.134;17.058;2023-03-01T04:50:48;113.50;;;75.93;;
2610;SDS011;5612;51.134;17.058;2023-03-01T04:53:17;114.67;;;76.67;;
2610;SDS011;5612;51.134;17.058;2023-03-01T04:55:46;116.10;;;73.70;;
2610;SDS011;5612;51.134;17.058;2023-03-01T04:58:15;109.10;;;72.87;;
2610;SDS011;5612;51.134;17.058;2023-03-01T05:00:45;106.13;;;75.20;;
2610;SDS011;5612;51.134;17.058;2023-03-01T05:03:14;104.37;;;71.17;;
2610;SDS011;5612;51.134;17.058;2023-03-01T05:05:47;109.40;;;79.07;;
2610;SDS011;5612;51.134;17.058;2023-03-01T05:08:17;106.23;;;75.37;;
2610;SDS011;5612;51.134;17.058;2023-03-01T05:10:48;104.20;;;72.60;;
2610;SDS011;5612;51.134;17.058;2023-03-01T05:13:18;116.40;;;80.27;;
2610;SDS011;5612;51.134;17.058;2023-03-01T05:15:49;112.60;;;76.30;;
2610;SDS011;5612;51.134;17.058;2023-03-01T05:18:23;112.27;;;74.30;;
2610;SDS011;5612;51.134;17.058;2023-03-01T05:20:54;101.47;;;69.50;;
2610;SDS011;5612;51.134;17.058;2023-03-01T05:23:25;114.63;;;73.60;;
2610;SDS011;5612;51.134;17.058;2023-03-01T05:25:54;109.77;;;74.30;;
2610;SDS011;5612;51.134;17.058;2023-03-01T05:28:26;114.63;;;74.83;;
2610;SDS011;5612;51.134;17.058;2023-03-01T05:30:56;111.43;;;78.50;;
2610;SDS011;5612;51.134;17.058;2023-03-01T05:33:26;110.13;;;76.07;;
2610;SDS011;5612;51.134;17.058;2023-03-01T05:35:59;110.07;;;71.50;;
2610;SDS011;5612;51.134;17.058;2023-03-01T05:38:28;107.10;;;69.00;;
2610;SDS011;5612;51.134;17.058;2023-03-01T05:40:57;110.70;;;74.37;;
2610;SDS011;5612;51.134;17.058;2023-03-01T05:43:26;109.80;;;73.63;;
2610;SDS011;5612;51.134;17.058;2023-03-01T05:45:57;112.87;;;72.33;;
2610;SDS011;5612;51.134;17.058;2023-03-01T05:48:27;106.50;;;72.90;;
2610;SDS011;5612;51.134;17.058;2023-03-01T05:50:59;116.10;;;74.30;;
2610;SDS011;5612;51.134;17.058;2023-03-01T05:53:28;106.70;;;74.33;;
2610;SDS011;5612;51.134;17.058;2023-03-01T05:55:57;106.63;;;72.10;;
2610;SDS011;5612;51.134;17.058;2023-03-01T05:58:26;100.67;;;68.00;;
2610;SDS011;5612;51.134;17.058;2023-03-01T06:00:55;109.93;;;72.00;;
2610;SDS011;5612;51.134;17.058;2023-03-01T06:03:24;107.40;;;74.00;;
2610;SDS011;5612;51.134;17.058;2023-03-01T06:05:56;103.27;;;71.30;;
2610;SDS011;5612;51.134;17.058;2023-03-01T06:08:27;102.93;;;73.33;;
2610;SDS011;5612;51.134;17.058;2023-03-01T06:10:56;112.93;;;76.07;;
2610;SDS011;5612;51.134;17.058;2023-03-01T06:13:24;106.07;;;72.87;;
2610;SDS011;5612;51.134;17.058;2023-03-01T06:15:53;97.27;;;69.73;;
2610;SDS011;5612;51.134;17.058;2023-03-01T06:18:22;103.33;;;65.37;;
2610;SDS011;5612;51.134;17.058;2023-03-01T06:20:52;108.83;;;73.83;;
2610;SDS011;5612;51.134;17.058;2023-03-01T06:23:23;119.50;;;79.17;;
2610;SDS011;5612;51.134;17.058;2023-03-01T06:25:52;106.20;;;75.27;;
2610;SDS011;5612;51.134;17.058;2023-03-01T06:28:21;103.17;;;70.70;;
2610;SDS011;5612;51.134;17.058;2023-03-01T06:30:50;95.37;;;67.50;;
2610;SDS011;5612;51.134;17.058;2023-03-01T06:33:19;78.53;;;52.87;;
2610;SDS011;5612;51.134;17.058;2023-03-01T06:35:50;102.33;;;65.07;;
2610;SDS011;5612;51.134;17.058;2023-03-01T06:38:23;87.83;;;59.90;;
2610;SDS011;5612;51.134;17.058;2023-03-01T06:40:53;76.70;;;53.50;;
2610;SDS011;5612;51.134;17.058;2023-03-01T06:43:23;74.30;;;46.27;;
2610;SDS011;5612;51.134;17.058;2023-03-01T06:45:52;78.63;;;51.70;;
2610;SDS011;5612;51.134;17.058;2023-03-01T06:48:21;73.70;;;49.77;;
2610;SDS011;5612;51.134;17.058;2023-03-01T06:50:50;58.20;;;44.73;;
2610;SDS011;5612;51.134;17.058;2023-03-01T06:53:18;61.50;;;44.07;;
2610;SDS011;5612;51.134;17.058;2023-03-01T06:55:54;61.27;;;44.13;;
2610;SDS011;5612;51.134;17.058;2023-03-01T06:58:23;56.80;;;38.47;;
2610;SDS011;5612;51.134;17.058;2023-03-01T07:00:52;58.33;;;41.50;;
2610;SDS011;5612;51.134;17.058;2023-03-01T07:03:21;61.33;;;39.53;;
2610;SDS011;5612;51.134;17.058;2023-03-01T07:05:50;62.90;;;40.70;;
2610;SDS011;5612;51.134;17.058;2023-03-01T07:08:20;63.30;;;44.37;;
2610;SDS011;5612;51.134;17.058;2023-03-01T07:10:55;58.77;;;41.70;;
2610;SDS011;5612;51.134;17.058;2023-03-01T07:13:24;59.33;;;39.23;;
2610;SDS011;5612;51.134;17.058;2023-03-01T07:15:53;65.03;;;40.90;;
2610;SDS011;5612;51.134;17.058;2023-03-01T07:18:22;58.73;;;41.90;;
2610;SDS011;5612;51.134;17.058;2023-03-01T07:20:50;54.03;;;41.37;;
2610;SDS011;5612;51.134;17.058;2023-03-01T07:23:19;60.50;;;42.47;;
2610;SDS011;5612;51.134;17.058;2023-03-01T07:25:51;65.33;;;43.57;;
2610;SDS011;5612;51.134;17.058;2023-03-01T07:28:23;66.30;;;45.67;;
2610;SDS011;5612;51.134;17.058;2023-03-01T07:30:52;63.77;;;48.13;;
2610;SDS011;5612;51.134;17.058;2023-03-01T07:33:22;65.43;;;45.97;;
2610;SDS011;5612;51.134;17.058;2023-03-01T07:35:55;62.63;;;46.57;;
2610;SDS011;5612;51.134;17.058;2023-03-01T07:38:25;63.70;;;46.33;;
2610;SDS011;5612;51.134;17.058;2023-03-01T07:40:59;64.17;;;48.20;;
2610;SDS011;5612;51.134;17.058;2023-03-01T07:43:31;55.97;;;47.07;;
2610;SDS011;5612;51.134;17.058;2023-03-01T07:46:01;56.27;;;44.43;;
2610;SDS011;5612;51.134;17.058;2023-03-01T07:48:30;47.53;;;41.40;;
2610;SDS011;5612;51.134;17.058;2023-03-01T07:50:59;50.23;;;41.43;;
2610;SDS011;5612;51.134;17.058;2023-03-01T07:53:29;46.60;;;41.50;;
2610;SDS011;5612;51.134;17.058;2023-03-01T07:56:01;39.47;;;33.83;;
2610;SDS011;5612;51.134;17.058;2023-03-01T07:58:33;36.20;;;32.50;;
2610;SDS011;5612;51.134;17.058;2023-03-01T08:01:03;41.50;;;37.20;;
2610;SDS011;5612;51.134;17.058;2023-03-01T08:03:32;31.83;;;28.70;;
2610;SDS011;5612;51.134;17.058;2023-03-01T08:06:01;32.80;;;29.37;;
2610;SDS011;5612;51.134;17.058;2023-03-01T08:08:30;35.77;;;32.07;;
2610;SDS011;5612;51.134;17.058;2023-03-01T08:11:00;33.87;;;30.37;;
2610;SDS011;5612;51.134;17.058;2023-03-01T08:13:30;35.43;;;31.77;;
2610;SDS011;5612;51.134;17.058;2023-03-01T08:16:01;32.67;;;29.50;;
2610;SDS011;5612;51.134;17.058;2023-03-01T08:18:30;35.03;;;31.43;;
2610;SDS011;5612;51.134;17.058;2023-03-01T08:21:01;34.10;;;30.90;;
2610;SDS011;5612;51.134;17.058;2023-03-01T08:23:31;33.20;;;29.67;;
2610;SDS011;5612;51.134;17.058;2023-03-01T08:26:03;34.13;;;31.00;;
2610;SDS011;5612;51.134;17.058;2023-03-01T08:28:35;31.27;;;28.37;;
2610;SDS011;5612;51.134;17.058;2023-03-01T08:31:12;28.43;;;25.83;;
2610;SDS011;5612;51.134;17.058;2023-03-01T08:33:45;29.27;;;26.30;;
2610;SDS011;5612;51.134;17.058;2023-03-01T08:36:18;28.37;;;25.77;;
2610;SDS011;5612;51.134;17.058;2023-03-01T08:38:47;26.50;;;23.97;;
2610;SDS011;5612;51.134;17.058;2023-03-01T08:41:16;25.63;;;23.40;;
2610;SDS011;5612;51.134;17.058;2023-03-01T08:43:47;25.53;;;23.13;;
2610;SDS011;5612;51.134;17.058;2023-03-01T08:46:16;25.90;;;23.50;;
2610;SDS011;5612;51.134;17.058;2023-03-01T08:48:45;27.00;;;24.50;;
2610;SDS011;5612;51.134;17.058;2023-03-01T08:51:15;29.77;;;27.10;;
2610;SDS011;5612;51.134;17.058;2023-03-01T08:53:45;30.70;;;28.00;;
2610;SDS011;5612;51.134;17.058;2023-03-01T08:56:17;30.23;;;27.53;;
2610;SDS011;5612;51.134;17.058;2023-03-01T08:58:48;27.33;;;25.03;;
2610;SDS011;5612;51.134;17.058;2023-03-01T09:01:17;29.27;;;26.37;;
2610;SDS011;5612;51.134;17.058;2023-03-01T09:03:47;33.73;;;30.47;;
2610;SDS011;5612;51.134;17.058;2023-03-01T09:06:16;34.40;;;31.30;;
2610;SDS011;5612;51.134;17.058;2023-03-01T09:08:46;32.40;;;29.50;;
2610;SDS011;5612;51.134;17.058;2023-03-01T09:11:16;32.53;;;29.53;;
2610;SDS011;5612;51.134;17.058;2023-03-01T09:13:48;29.53;;;26.87;;
2610;SDS011;5612;51.134;17.058;2023-03-01T09:16:19;30.00;;;27.10;;
2610;SDS011;5612;51.134;17.058;2023-03-01T09:18:49;30.00;;;27.40;;
2610;SDS011;5612;51.134;17.058;2023-03-01T09:21:19;31.33;;;28.43;;
2610;SDS011;5612;51.134;17.058;2023-03-01T09:24:06;30.77;;;27.97;;
2610;SDS011;5612;51.134;17.058;2023-03-01T09:26:40;31.50;;;28.43;;
2610;SDS011;5612;51.134;17.058;2023-03-01T09:29:11;26.80;;;24.30;;
2610;SDS011;5612;51.134;17.058;2023-03-01T09:31:40;25.87;;;23.67;;
2610;SDS011;5612;51.134;17.058;2023-03-01T09:34:09;28.57;;;26.03;;
2610;SDS011;5612;51.134;17.058;2023-03-01T09:36:38;27.73;;;25.27;;
2610;SDS011;5612;51.134;17.058;2023-03-01T09:39:07;28.23;;;25.63;;
2610;SDS011;5612;51.134;17.058;2023-03-01T09:41:46;28.60;;;26.00;;
2610;SDS011;5612;51.134;17.058;2023-03-01T09:44:26;27.30;;;24.93;;
2610;SDS011;5612;51.134;17.058;2023-03-01T09:46:59;25.07;;;22.77;;
2610;SDS011;5612;51.134;17.058;2023-03-01T09:49:29;25.87;;;23.80;;
2610;SDS011;5612;51.134;17.058;2023-03-01T09:52:17;26.07;;;23.77;;
2610;SDS011;5612;51.134;17.058;2023-03-01T09:54:52;24.87;;;22.77;;
2610;SDS011;5612;51.134;17.058;2023-03-01T09:57:28;25.33;;;23.23;;
2610;SDS011;5612;51.134;17.058;2023-03-01T10:00:05;23.97;;;22.03;;
2610;SDS011;5612;51.134;17.058;2023-03-01T10:02:51;25.70;;;23.70;;
2610;SDS011;5612;51.134;17.058;2023-03-01T10:05:34;25.37;;;23.30;;
2610;SDS011;5612;51.134;17.058;2023-03-01T10:11:19;25.73;;;23.47;;
2610;SDS011;5612;51.134;17.058;2023-03-01T10:13:54;24.13;;;21.73;;
2610;SDS011;5612;51.134;17.058;2023-03-01T10:16:32;24.53;;;22.53;;
2610;SDS011;5612;51.134;17.058;2023-03-01T10:19:10;21.33;;;19.50;;
2610;SDS011;5612;51.134;17.058;2023-03-01T10:21:43;21.60;;;19.50;;
2610;SDS011;5612;51.134;17.058;2023-03-01T10:24:15;23.13;;;21.10;;
2610;SDS011;5612;51.134;17.058;2023-03-01T10:26:49;22.17;;;20.07;;
2610;SDS011;5612;51.134;17.058;2023-03-01T10:29:24;22.07;;;20.10;;
2610;SDS011;5612;51.134;17.058;2023-03-01T10:32:00;24.00;;;22.07;;
2610;SDS011;5612;51.134;17.058;2023-03-01T10:34:34;23.33;;;21.43;;
2610;SDS011;5612;51.134;17.058;2023-03-01T10:37:09;24.70;;;22.33;;
2610;SDS011;5612;51.134;17.058;2023-03-01T10:39:54;24.00;;;22.10;;
2610;SDS011;5612;51.134;17.058;2023-03-01T10:42:26;26.80;;;24.43;;
2610;SDS011;5612;51.134;17.058;2023-03-01T10:44:56;22.00;;;20.30;;
2610;SDS011;5612;51.134;17.058;2023-03-01T10:47:27;24.87;;;22.57;;
2610;SDS011;5612;51.134;17.058;2023-03-01T10:50:00;24.37;;;22.00;;
2610;SDS011;5612;51.134;17.058;2023-03-01T10:52:32;21.77;;;19.97;;
2610;SDS011;5612;51.134;17.058;2023-03-01T10:55:03;22.27;;;20.30;;
2610;SDS011;5612;51.134;17.058;2023-03-01T10:57:52;22.37;;;20.40;;
2610;SDS011;5612;51.134;17.058;2023-03-01T11:00:45;22.83;;;20.93;;
2610;SDS011;5612;51.134;17.058;2023-03-01T11:03:18;22.20;;;20.50;;
2610;SDS011;5612;51.134;17.058;2023-03-01T11:05:54;21.67;;;19.90;;
2610;SDS011;5612;51.134;17.058;2023-03-01T11:08:30;22.87;;;20.93;;
2610;SDS011;5612;51.134;17.058;2023-03-01T11:11:05;22.20;;;20.43;;
2610;SDS011;5612;51.134;17.058;2023-03-01T11:13:47;22.43;;;20.60;;
2610;SDS011;5612;51.134;17.058;2023-03-01T11:16:24;21.97;;;20.17;;
2610;SDS011;5612;51.134;17.058;2023-03-01T11:19:04;23.10;;;21.10;;
2610;SDS011;5612;51.134;17.058;2023-03-01T11:21:50;22.00;;;20.03;;
2610;SDS011;5612;51.134;17.058;2023-03-01T11:24:26;21.40;;;19.70;;
2610;SDS011;5612;51.134;17.058;2023-03-01T11:26:58;20.87;;;19.13;;
2610;SDS011;5612;51.134;17.058;2023-03-01T11:29:33;19.57;;;17.73;;
2610;SDS011;5612;51.134;17.058;2023-03-01T11:32:14;19.77;;;18.17;;
2610;SDS011;5612;51.134;17.058;2023-03-01T11:34:47;19.33;;;17.60;;
2610;SDS011;5612;51.134;17.058;2023-03-01T11:37:28;19.90;;;18.30;;
2610;SDS011;5612;51.134;17.058;2023-03-01T11:40:04;20.87;;;19.10;;
2610;SDS011;5612;51.134;17.058;2023-03-01T11:42:45;21.40;;;19.70;;
2610;SDS011;5612;51.134;17.058;2023-03-01T11:45:20;21.03;;;18.90;;
2610;SDS011;5612;51.134;17.058;2023-03-01T11:47:58;21.47;;;19.60;;
2610;SDS011;5612;51.134;17.058;2023-03-01T11:50:38;21.67;;;19.90;;
2610;SDS011;5612;51.134;17.058;2023-03-01T11:53:24;22.30;;;20.60;;
2610;SDS011;5612;51.134;17.058;2023-03-01T11:56:05;22.90;;;21.23;;
2610;SDS011;5612;51.134;17.058;2023-03-01T11:59:01;21.80;;;20.17;;
2610;SDS011;5612;51.134;17.058;2023-03-01T12:01:41;20.30;;;18.70;;
2610;SDS011;5612;51.134;17.058;2023-03-01T12:04:30;21.93;;;20.33;;
2610;SDS011;5612;51.134;17.058;2023-03-01T12:07:34;22.83;;;20.50;;
2610;SDS011;5612;51.134;17.058;2023-03-01T12:10:16;21.40;;;19.60;;
2610;SDS011;5612;51.134;17.058;2023-03-01T12:12:54;19.00;;;17.40;;
2610;SDS011;5612;51.134;17.058;2023-03-01T12:15:33;17.60;;;16.10;;
2610;SDS011;5612;51.134;17.058;2023-03-01T12:18:16;20.13;;;18.47;;
2610;SDS011;5612;51.134;17.058;2023-03-01T12:21:09;20.33;;;18.33;;
2610;SDS011;5612;51.134;17.058;2023-03-01T12:23:50;19.00;;;17.30;;
2610;SDS011;5612;51.134;17.058;2023-03-01T12:26:39;17.53;;;15.97;;
2610;SDS011;5612;51.134;17.058;2023-03-01T12:29:24;15.07;;;13.77;;
2610;SDS011;5612;51.134;17.058;2023-03-01T12:32:00;14.70;;;13.50;;
2610;SDS011;5612;51.134;17.058;2023-03-01T12:34:50;15.37;;;14.10;;
2610;SDS011;5612;51.134;17.058;2023-03-01T12:37:48;14.73;;;13.53;;
2610;SDS011;5612;51.134;17.058;2023-03-01T12:40:31;15.63;;;14.23;;
2610;SDS011;5612;51.134;17.058;2023-03-01T12:43:10;13.70;;;12.60;;
2610;SDS011;5612;51.134;17.058;2023-03-01T12:45:50;13.70;;;12.50;;
2610;SDS011;5612;51.134;17.058;2023-03-01T12:48:36;12.83;;;11.70;;
2610;SDS011;5612;51.134;17.058;2023-03-01T12:51:17;11.67;;;10.50;;
2610;SDS011;5612;51.134;17.058;2023-03-01T12:53:51;10.90;;;9.83;;
2610;SDS011;5612;51.134;17.058;2023-03-01T12:56:25;11.27;;;10.20;;
2610;SDS011;5612;51.134;17.058;2023-03-01T12:58:59;13.00;;;11.93;;
2610;SDS011;5612;51.134;17.058;2023-03-01T13:01:35;13.50;;;12.30;;
2610;SDS011;5612;51.134;17.058;2023-03-01T13:04:14;13.57;;;12.37;;
2610;SDS011;5612;51.134;17.058;2023-03-01T13:07:11;12.00;;;11.00;;
2610;SDS011;5612;51.134;17.058;2023-03-01T13:09:49;12.07;;;10.97;;
2610;SDS011;5612;51.134;17.058;2023-03-01T13:12:46;11.67;;;10.77;;
2610;SDS011;5612;51.134;17.058;2023-03-01T13:15:26;14.57;;;13.13;;
2610;SDS011;5612;51.134;17.058;2023-03-01T13:17:57;12.67;;;11.70;;
2610;SDS011;5612;51.134;17.058;2023-03-01T13:20:29;13.83;;;12.73;;
2610;SDS011;5612;51.134;17.058;2023-03-01T13:23:02;13.83;;;12.47;;
2610;SDS011;5612;51.134;17.058;2023-03-01T13:28:49;13.87;;;12.60;;
2610;SDS011;5612;51.134;17.058;2023-03-01T13:37:30;16.07;;;14.67;;
2610;SDS011;5612;51.134;17.058;2023-03-01T13:40:04;17.70;;;16.10;;
2610;SDS011;5612;51.134;17.058;2023-03-01T13:42:51;16.20;;;13.40;;
2610;SDS011;5612;51.134;17.058;2023-03-01T13:45:38;15.13;;;13.93;;
2610;SDS011;5612;51.134;17.058;2023-03-01T13:48:09;14.90;;;13.70;;
2610;SDS011;5612;51.134;17.058;2023-03-01T13:50:45;15.50;;;14.10;;
2610;SDS011;5612;51.134;17.058;2023-03-01T13:53:19;14.77;;;13.47;;
2610;SDS011;5612;51.134;17.058;2023-03-01T13:55:50;15.80;;;14.40;;
2610;SDS011;5612;51.134;17.058;2023-03-01T13:58:26;15.73;;;14.23;;
2610;SDS011;5612;51.134;17.058;2023-03-01T14:00:59;16.43;;;15.03;;
2610;SDS011;5612;51.134;17.058;2023-03-01T14:03:30;14.93;;;13.70;;
2610;SDS011;5612;51.134;17.058;2023-03-01T14:06:01;17.50;;;16.00;;
2610;SDS011;5612;51.134;17.058;2023-03-01T14:08:42;15.40;;;14.00;;
2610;SDS011;5612;51.134;17.058;2023-03-01T14:11:31;17.63;;;16.13;;
2610;SDS011;5612;51.134;17.058;2023-03-01T14:14:29;17.80;;;16.00;;
2610;SDS011;5612;51.134;17.058;2023-03-01T14:17:18;17.27;;;15.57;;
2610;SDS011;5612;51.134;17.058;2023-03-01T14:20:10;17.63;;;16.03;;
2610;SDS011;5612;51.134;17.058;2023-03-01T14:22:42;18.67;;;16.97;;
2610;SDS011;5612;51.134;17.058;2023-03-01T14:28:01;17.37;;;15.60;;
2610;SDS011;5612;51.134;17.058;2023-03-01T14:30:33;19.83;;;17.50;;
2610;SDS011;5612;51.134;17.058;2023-03-01T14:33:17;19.13;;;17.33;;
2610;SDS011;5612;51.134;17.058;2023-03-01T14:35:54;28.40;;;25.70;;
2610;SDS011;5612;51.134;17.058;2023-03-01T14:38:29;21.37;;;17.27;;
2610;SDS011;5612;51.134;17.058;2023-03-01T14:41:01;36.30;;;32.53;;
2610;SDS011;5612;51.134;17.058;2023-03-01T14:43:33;25.20;;;23.00;;
2610;SDS011;5612;51.134;17.058;2023-03-01T14:46:03;20.80;;;19.20;;
2610;SDS011;5612;51.134;17.058;2023-03-01T14:48:34;18.70;;;16.90;;
2610;SDS011;5612;51.134;17.058;2023-03-01T14:51:04;17.30;;;15.60;;
2610;SDS011;5612;51.134;17.058;2023-03-01T14:53:34;19.60;;;17.67;;
2610;SDS011;5612;51.134;17.058;2023-03-01T14:56:16;18.73;;;16.97;;
2610;SDS011;5612;51.134;17.058;2023-03-01T14:58:46;21.33;;;15.33;;
2610;SDS011;5612;51.134;17.058;2023-03-01T15:01:18;16.83;;;15.13;;
2610;SDS011;5612;51.134;17.058;2023-03-01T15:03:50;17.13;;;15.60;;
2610;SDS011;5612;51.134;17.058;2023-03-01T15:06:20;22.17;;;20.47;;
2610;SDS011;5612;51.134;17.058;2023-03-01T15:08:51;17.43;;;15.80;;
2610;SDS011;5612;51.134;17.058;2023-03-01T15:11:24;15.60;;;14.10;;
2610;SDS011;5612;51.134;17.058;2023-03-01T15:13:56;17.33;;;15.83;;
2610;SDS011;5612;51.134;17.058;2023-03-01T15:16:27;21.43;;;19.43;;
2610;SDS011;5612;51.134;17.058;2023-03-01T15:18:59;18.90;;;17.10;;
2610;SDS011;5612;51.134;17.058;2023-03-01T15:21:31;18.17;;;16.37;;
2610;SDS011;5612;51.134;17.058;2023-03-01T15:24:02;18.90;;;17.10;;